createdAt,value
2019-01-24T00:00:07.397Z,-4.3
2019-01-24T00:01:07.692Z,-4.2
2019-01-24T00:02:07.560Z,-4.2
2019-01-24T00:03:07.461Z,-4.2
2019-01-24T00:04:07.357Z,-4.2
2019-01-24T00:05:07.244Z,-4.1
2019-01-24T00:06:07.143Z,-4.1
2019-01-24T00:07:07.027Z,-4.1
2019-01-24T00:08:06.911Z,-4.2
2019-01-24T00:09:06.803Z,-4.2
2019-01-24T00:10:06.707Z,-4.2
2019-01-24T00:11:07.006Z,-4.3
2019-01-24T00:12:06.909Z,-4.3
2019-01-24T00:13:06.800Z,-4.3
2019-01-24T00:14:06.689Z,-4.4
2019-01-24T00:15:06.597Z,-4.3
2019-01-24T00:16:06.625Z,-4.4
2019-01-24T00:17:06.751Z,-4.4
2019-01-24T00:18:06.639Z,-4.4
2019-01-24T00:19:06.535Z,-4.5
2019-01-24T00:20:06.443Z,-4.5
2019-01-24T00:21:06.753Z,-4.5
2019-01-24T00:22:06.641Z,-4.5
2019-01-24T00:23:06.517Z,-4.5
2019-01-24T00:24:06.394Z,-4.5
2019-01-24T00:25:06.319Z,-4.5
2019-01-24T00:26:06.201Z,-4.5
2019-01-24T00:27:06.083Z,-4.5
2019-01-24T00:28:05.968Z,-4.6
2019-01-24T00:29:05.876Z,-4.5
2019-01-24T00:30:05.753Z,-4.5
2019-01-24T00:31:06.099Z,-4.5
2019-01-24T00:32:05.997Z,-4.6
2019-01-24T00:33:05.917Z,-4.6
2019-01-24T00:34:05.810Z,-4.6
2019-01-24T00:35:05.701Z,-4.6
2019-01-24T00:38:05.057Z,-4.4
2019-01-24T00:39:04.931Z,-4.3
2019-01-24T00:40:04.819Z,-4.2
2019-01-24T00:41:05.169Z,-4.2
2019-01-24T00:42:05.057Z,-4.2
2019-01-24T00:44:04.645Z,-4.2
2019-01-24T00:45:04.527Z,-4.2
2019-01-24T00:46:04.421Z,-4.1
2019-01-24T00:47:04.329Z,-4.1
2019-01-24T00:49:03.923Z,-4.1
2019-01-24T00:50:03.805Z,-4
2019-01-24T00:51:04.146Z,-3.9
2019-01-24T00:52:04.093Z,-3.9
2019-01-24T00:53:03.993Z,-4
2019-01-24T00:54:03.889Z,-3.9
2019-01-24T00:55:03.997Z,-3.8
2019-01-24T00:56:03.883Z,-3.9
2019-01-24T00:57:03.779Z,-3.8
2019-01-24T00:58:03.666Z,-3.8
2019-01-24T00:59:03.555Z,-3.8
2019-01-24T01:00:03.455Z,-3.8
2019-01-24T01:01:03.755Z,-3.7
2019-01-24T01:02:03.675Z,-3.8
2019-01-24T01:03:03.559Z,-3.8
2019-01-24T01:04:06.497Z,-3.8
2019-01-24T01:05:06.383Z,-3.8
2019-01-24T01:06:06.255Z,-3.9
2019-01-24T01:07:06.147Z,-3.9
2019-01-24T01:08:06.036Z,-4
2019-01-24T01:09:05.912Z,-4
2019-01-24T01:10:05.798Z,-4.1
2019-01-24T01:11:06.107Z,-4.2
2019-01-24T01:12:06.023Z,-4.2
2019-01-24T01:13:05.893Z,-4.2
2019-01-24T01:14:05.783Z,-4.2
2019-01-24T01:15:05.663Z,-4.2
2019-01-24T01:16:05.549Z,-4.2
2019-01-24T01:17:05.454Z,-4.2
2019-01-24T01:18:05.338Z,-4.3
2019-01-24T01:19:05.222Z,-4.3
2019-01-24T01:20:05.114Z,-4.4
2019-01-24T01:21:05.426Z,-4.4
2019-01-24T01:22:05.327Z,-4.4
2019-01-24T01:23:05.195Z,-4.5
2019-01-24T01:24:05.080Z,-4.4
2019-01-24T01:25:04.971Z,-4.5
2019-01-24T01:26:04.864Z,-4.5
2019-01-24T01:27:04.753Z,-4.5
2019-01-24T01:28:04.639Z,-4.6
2019-01-24T01:29:04.524Z,-4.6
2019-01-24T01:30:04.407Z,-4.7
2019-01-24T01:31:04.715Z,-4.7
2019-01-24T01:32:04.627Z,-4.8
2019-01-24T01:33:04.535Z,-4.8
2019-01-24T01:34:04.416Z,-4.8
2019-01-24T01:35:04.291Z,-4.8
2019-01-24T01:36:04.172Z,-4.8
2019-01-24T01:37:04.040Z,-4.8
2019-01-24T01:38:03.956Z,-4.8
2019-01-24T01:39:03.852Z,-4.8
2019-01-24T01:40:03.741Z,-4.8
2019-01-24T01:41:04.063Z,-4.8
2019-01-24T01:42:03.960Z,-4.8
2019-01-24T01:43:03.878Z,-4.8
2019-01-24T01:44:03.758Z,-4.8
2019-01-24T01:45:03.638Z,-4.8
2019-01-24T01:46:03.520Z,-4.9
2019-01-24T01:47:03.396Z,-4.9
2019-01-24T01:48:03.302Z,-4.9
2019-01-24T01:49:03.234Z,-4.8
2019-01-24T01:50:03.116Z,-4.8
2019-01-24T01:51:03.416Z,-4.8
2019-01-24T01:52:03.294Z,-4.8
2019-01-24T01:53:03.186Z,-4.8
2019-01-24T01:54:03.056Z,-4.8
2019-01-24T01:55:02.959Z,-4.8
2019-01-24T01:56:02.846Z,-4.8
2019-01-24T01:57:02.746Z,-4.8
2019-01-24T01:58:02.636Z,-4.8
2019-01-24T01:59:02.517Z,-4.8
2019-01-24T02:00:02.405Z,-4.8
2019-01-24T02:01:02.725Z,-4.8
2019-01-24T02:02:02.602Z,-4.9
2019-01-24T02:03:02.470Z,-4.9
2019-01-24T02:04:02.362Z,-4.9
2019-01-24T02:05:02.258Z,-4.9
2019-01-24T02:06:02.186Z,-4.9
2019-01-24T02:07:02.087Z,-4.9
2019-01-24T02:08:01.970Z,-4.8
2019-01-24T02:09:01.850Z,-4.9
2019-01-24T02:10:01.736Z,-4.9
2019-01-24T02:11:02.092Z,-4.9
2019-01-24T02:12:01.968Z,-4.9
2019-01-24T02:13:01.857Z,-4.9
2019-01-24T02:14:01.742Z,-4.9
2019-01-24T02:15:01.622Z,-4.9
2019-01-24T02:16:01.507Z,-4.9
2019-01-24T02:17:01.392Z,-4.9
2019-01-24T02:18:01.311Z,-4.9
2019-01-24T02:19:01.197Z,-4.9
2019-01-24T02:20:01.157Z,-5
2019-01-24T02:21:01.464Z,-5
2019-01-24T02:22:01.363Z,-5
2019-01-24T02:23:01.267Z,-5
2019-01-24T02:24:01.144Z,-5.1
2019-01-24T02:25:01.036Z,-5.1
2019-01-24T02:26:00.911Z,-5.1
2019-01-24T02:27:00.808Z,-5.2
2019-01-24T02:28:00.706Z,-5.2
2019-01-24T02:29:00.594Z,-5.2
2019-01-24T02:30:00.648Z,-5.1
2019-01-24T02:31:01.091Z,-5.1
2019-01-24T02:32:00.980Z,-5.1
2019-01-24T02:33:00.913Z,-5.2
2019-01-24T02:34:00.824Z,-5.1
2019-01-24T02:35:00.740Z,-5.1
2019-01-24T02:36:00.695Z,-5.1
2019-01-24T02:37:00.584Z,-5.1
2019-01-24T02:38:00.473Z,-5.1
2019-01-24T02:39:00.382Z,-5.2
2019-01-24T02:40:00.279Z,-5.2
2019-01-24T02:41:00.600Z,-5.2
2019-01-24T02:42:00.474Z,-5.2
2019-01-24T02:43:00.371Z,-5.2
2019-01-24T02:44:00.290Z,-5.2
2019-01-24T02:45:00.306Z,-5.2
2019-01-24T02:46:00.420Z,-5.2
2019-01-24T02:47:00.331Z,-5.2
2019-01-24T02:48:00.225Z,-5.1
2019-01-24T02:49:00.146Z,-5.2
2019-01-24T02:50:00.233Z,-5.2
2019-01-24T02:51:00.562Z,-5.2
2019-01-24T02:52:00.463Z,-5.2
2019-01-24T02:53:00.365Z,-5.2
2019-01-24T02:54:00.266Z,-5.2
2019-01-24T02:55:00.215Z,-5.2
2019-01-24T02:56:00.122Z,-5.2
2019-01-24T02:57:00.021Z,-5.2
2019-01-24T02:57:59.918Z,-5.2
2019-01-24T02:58:59.830Z,-5.3
2019-01-24T02:59:59.762Z,-5.3
2019-01-24T03:01:00.208Z,-5.3
2019-01-24T03:02:00.087Z,-5.2
2019-01-24T03:02:59.981Z,-5.2
2019-01-24T03:03:59.902Z,-5.2
2019-01-24T03:04:59.782Z,-5.2
2019-01-24T03:05:59.768Z,-5.3
2019-01-24T03:06:59.665Z,-5.3
2019-01-24T03:07:59.543Z,-5.3
2019-01-24T03:08:59.438Z,-5.3
2019-01-24T03:09:59.301Z,-5.4
2019-01-24T03:10:59.665Z,-5.3
2019-01-24T03:11:59.544Z,-5.4
2019-01-24T03:12:59.421Z,-5.3
2019-01-24T03:13:59.312Z,-5.3
2019-01-24T03:14:59.206Z,-5.3
2019-01-24T03:15:59.130Z,-5.3
2019-01-24T03:16:59.005Z,-5.3
2019-01-24T03:17:58.884Z,-5.2
2019-01-24T03:18:58.774Z,-5.2
2019-01-24T03:19:58.656Z,-5.2
2019-01-24T03:20:58.980Z,-5.2
2019-01-24T03:21:58.886Z,-5.1
2019-01-24T03:22:58.775Z,-5.1
2019-01-24T03:23:58.663Z,-5.1
2019-01-24T03:24:58.573Z,-5.2
2019-01-24T03:25:58.492Z,-5.2
2019-01-24T03:26:58.400Z,-5.2
2019-01-24T03:27:58.292Z,-5.2
2019-01-24T03:28:58.174Z,-5.2
2019-01-24T03:29:58.042Z,-5.2
2019-01-24T03:30:58.377Z,-5.2
2019-01-24T03:31:58.290Z,-5.2
2019-01-24T03:32:58.225Z,-5.2
2019-01-24T03:33:58.120Z,-5.2
2019-01-24T03:35:05.076Z,-5
2019-01-24T03:36:04.962Z,-4.9
2019-01-24T03:38:04.612Z,-4.8
2019-01-24T03:39:04.524Z,-4.8
2019-01-24T03:41:04.584Z,-4.8
2019-01-24T03:42:04.500Z,-4.8
2019-01-24T03:43:04.416Z,-4.8
2019-01-24T03:44:04.305Z,-4.7
2019-01-24T03:45:04.220Z,-4.8
2019-01-24T03:46:04.092Z,-4.7
2019-01-24T03:47:04.005Z,-4.8
2019-01-24T03:48:03.893Z,-4.9
2019-01-24T03:49:03.790Z,-4.9
2019-01-24T03:50:03.696Z,-4.9
2019-01-24T03:51:04.010Z,-5
2019-01-24T03:52:03.947Z,-5.1
2019-01-24T03:53:03.860Z,-5.2
2019-01-24T03:54:03.991Z,-5.2
2019-01-24T03:55:03.871Z,-5.2
2019-01-24T03:56:03.755Z,-5.2
2019-01-24T03:57:03.648Z,-5.1
2019-01-24T03:59:03.295Z,-4.9
2019-01-24T04:01:03.359Z,-4.8
2019-01-24T04:02:03.255Z,-4.9
2019-01-24T04:03:03.141Z,-4.9
2019-01-24T04:04:03.022Z,-4.9
2019-01-24T04:05:02.972Z,-4.9
2019-01-24T04:06:02.871Z,-4.9
2019-01-24T04:07:02.768Z,-5
2019-01-24T04:08:02.656Z,-5
2019-01-24T04:09:02.559Z,-5
2019-01-24T04:10:02.459Z,-5
2019-01-24T04:11:02.797Z,-5.1
2019-01-24T04:12:02.729Z,-5.1
2019-01-24T04:13:02.636Z,-5.1
2019-01-24T04:14:02.526Z,-5.2
2019-01-24T04:17:01.898Z,-5.1
2019-01-24T04:18:01.838Z,-5
2019-01-24T04:19:01.725Z,-5
2019-01-24T04:20:01.608Z,-4.9
2019-01-24T04:21:01.976Z,-4.9
2019-01-24T04:22:01.883Z,-4.9
2019-01-24T04:23:01.774Z,-5
2019-01-24T04:24:01.681Z,-4.9
2019-01-24T04:25:01.834Z,-4.9
2019-01-24T04:26:01.743Z,-4.9
2019-01-24T04:27:01.668Z,-5
2019-01-24T04:28:01.641Z,-5
2019-01-24T04:29:01.541Z,-5
2019-01-24T04:30:01.427Z,-5.1
2019-01-24T04:31:01.959Z,-5.2
2019-01-24T04:32:01.887Z,-5.2
2019-01-24T04:33:01.786Z,-5.2
2019-01-24T04:34:01.683Z,-5.1
2019-01-24T04:35:01.711Z,-5.2
2019-01-24T04:36:01.631Z,-5.3
2019-01-24T04:37:01.539Z,-5.3
2019-01-24T04:38:01.459Z,-5.3
2019-01-24T04:39:01.352Z,-5.3
2019-01-24T04:40:01.282Z,-5.3
2019-01-24T04:41:01.625Z,-5.4
2019-01-24T04:42:01.512Z,-5.4
2019-01-24T04:43:01.469Z,-5.3
2019-01-24T04:44:01.344Z,-5.3
2019-01-24T04:45:01.265Z,-5.3
2019-01-24T04:46:01.155Z,-5.3
2019-01-24T04:47:01.049Z,-5.2
2019-01-24T04:49:00.690Z,-5.1
2019-01-24T04:50:00.689Z,-5
2019-01-24T04:51:01.119Z,-5
2019-01-24T04:52:01.055Z,-5
2019-01-24T04:53:00.951Z,-5.1
2019-01-24T04:54:00.869Z,-5.3
2019-01-24T04:55:00.936Z,-5.3
2019-01-24T04:56:00.873Z,-5.4
2019-01-24T04:57:00.767Z,-5.5
2019-01-24T04:58:00.675Z,-5.6
2019-01-24T04:59:00.642Z,-5.6
2019-01-24T05:00:00.679Z,-5.6
2019-01-24T05:01:01.089Z,-5.6
2019-01-24T05:02:00.994Z,-5.6
2019-01-24T05:03:00.898Z,-5.6
2019-01-24T05:04:00.771Z,-5.6
2019-01-24T05:05:00.697Z,-5.6
2019-01-24T05:06:00.589Z,-5.6
2019-01-24T05:07:00.469Z,-5.6
2019-01-24T05:08:00.449Z,-5.7
2019-01-24T05:09:00.346Z,-5.7
2019-01-24T05:10:00.248Z,-5.6
2019-01-24T05:11:02.631Z,-5.6
2019-01-24T05:12:02.535Z,-5.7
2019-01-24T05:13:02.451Z,-5.7
2019-01-24T05:14:02.319Z,-5.6
2019-01-24T05:15:02.214Z,-5.6
2019-01-24T05:16:02.096Z,-5.6
2019-01-24T05:17:01.999Z,-5.6
2019-01-24T05:18:01.916Z,-5.6
2019-01-24T05:19:01.797Z,-5.6
2019-01-24T05:20:01.678Z,-5.6
2019-01-24T05:21:02.046Z,-5.7
2019-01-24T05:22:01.968Z,-5.7
2019-01-24T05:23:01.870Z,-5.7
2019-01-24T05:26:01.311Z,-5.7
2019-01-24T05:35:59.325Z,-5.3
2019-01-24T05:36:59.215Z,-5.3
2019-01-24T05:37:59.127Z,-5.2
2019-01-24T05:38:59.012Z,-5.1
2019-01-24T05:39:58.921Z,-5.1
2019-01-24T05:40:59.215Z,-5.1
2019-01-24T05:42:58.801Z,-5.1
2019-01-24T05:43:58.701Z,-5.1
2019-01-24T05:44:58.629Z,-5.2
2019-01-24T05:47:57.954Z,-5.1
2019-01-24T05:48:57.866Z,-5.1
2019-01-24T05:49:57.791Z,-5
2019-01-24T05:50:58.099Z,-5
2019-01-24T05:51:57.987Z,-5
2019-01-24T05:52:57.886Z,-5
2019-01-24T05:53:57.805Z,-5
2019-01-24T05:54:57.690Z,-5
2019-01-24T05:55:57.598Z,-5.1
2019-01-24T05:56:57.477Z,-5.1
2019-01-24T05:57:57.358Z,-5.2
2019-01-24T05:58:57.294Z,-5.2
2019-01-24T05:59:57.180Z,-5.3
2019-01-24T06:00:57.483Z,-5.5
2019-01-24T06:01:57.375Z,-5.5
2019-01-24T06:02:57.329Z,-5.6
2019-01-24T06:03:57.205Z,-5.5
2019-01-24T06:04:57.106Z,-5.6
2019-01-24T06:05:57.010Z,-5.6
2019-01-24T06:06:56.889Z,-5.5
2019-01-24T06:07:56.792Z,-5.5
2019-01-24T06:08:56.694Z,-5.6
2019-01-24T06:09:56.578Z,-5.6
2019-01-24T06:10:56.916Z,-5.7
2019-01-24T06:11:56.794Z,-5.7
2019-01-24T06:12:56.718Z,-5.7
2019-01-24T06:13:56.618Z,-5.7
2019-01-24T06:14:56.528Z,-5.6
2019-01-24T06:15:56.406Z,-5.6
2019-01-24T06:16:56.329Z,-5.7
2019-01-24T06:17:56.205Z,-5.8
2019-01-24T06:18:56.090Z,-5.8
2019-01-24T06:19:55.966Z,-5.8
2019-01-24T06:20:56.276Z,-5.8
2019-01-24T06:21:56.210Z,-5.8
2019-01-24T06:22:56.101Z,-5.8
2019-01-24T06:23:55.976Z,-5.8
2019-01-24T06:24:55.864Z,-5.8
2019-01-24T06:25:55.742Z,-5.8
2019-01-24T06:26:55.670Z,-5.9
2019-01-24T06:27:55.564Z,-5.9
2019-01-24T06:28:55.452Z,-5.9
2019-01-24T06:29:55.337Z,-5.9
2019-01-24T06:30:55.658Z,-5.9
2019-01-24T06:31:55.545Z,-5.8
2019-01-24T06:32:55.452Z,-5.8
2019-01-24T06:33:55.346Z,-5.8
2019-01-24T06:38:54.248Z,-5.3
2019-01-24T06:39:54.132Z,-5.3
2019-01-24T06:40:54.435Z,-5.2
2019-01-24T06:41:54.322Z,-5.2
2019-01-24T06:42:54.235Z,-5.3
2019-01-24T06:43:54.114Z,-5.3
2019-01-24T06:44:53.994Z,-5.3
2019-01-24T06:45:53.870Z,-5.3
2019-01-24T06:46:53.745Z,-5.4
2019-01-24T06:47:53.623Z,-5.5
2019-01-24T06:48:53.532Z,-5.5
2019-01-24T06:49:53.416Z,-5.5
2019-01-24T06:50:53.712Z,-5.6
2019-01-24T06:51:53.602Z,-5.6
2019-01-24T06:52:53.479Z,-5.7
2019-01-24T06:53:53.374Z,-5.7
2019-01-24T06:54:53.276Z,-5.7
2019-01-24T06:55:53.186Z,-5.7
2019-01-24T06:56:53.088Z,-5.7
2019-01-24T06:57:52.989Z,-5.8
2019-01-24T06:58:52.885Z,-5.9
2019-01-24T06:59:52.772Z,-5.9
2019-01-24T07:00:53.089Z,-5.9
2019-01-24T07:01:52.982Z,-6
2019-01-24T07:02:52.878Z,-5.9
2019-01-24T07:03:52.771Z,-5.9
2019-01-24T07:04:52.666Z,-5.9
2019-01-24T07:05:56.072Z,-5.9
2019-01-24T07:06:55.976Z,-5.9
2019-01-24T07:07:55.864Z,-6
2019-01-24T07:08:55.770Z,-6
2019-01-24T07:09:55.664Z,-6
2019-01-24T07:10:55.982Z,-6
2019-01-24T07:11:55.856Z,-6
2019-01-24T07:12:55.746Z,-6
2019-01-24T07:13:55.642Z,-6
2019-01-24T07:14:55.569Z,-5.9
2019-01-24T07:15:55.451Z,-6
2019-01-24T07:16:55.337Z,-6
2019-01-24T07:17:55.207Z,-6
2019-01-24T07:18:55.088Z,-6
2019-01-24T07:19:54.987Z,-6.1
2019-01-24T07:20:55.321Z,-6.1
2019-01-24T07:21:55.210Z,-6.1
2019-01-24T07:22:55.089Z,-6.1
2019-01-24T07:23:54.970Z,-6
2019-01-24T07:24:54.869Z,-6
2019-01-24T07:25:54.740Z,-6
2019-01-24T07:26:54.621Z,-6
2019-01-24T07:27:54.503Z,-6
2019-01-24T07:28:54.386Z,-6
2019-01-24T07:29:54.277Z,-6.1
2019-01-24T07:30:54.593Z,-6
2019-01-24T07:31:54.486Z,-6
2019-01-24T07:32:54.400Z,-5.9
2019-01-24T07:33:54.265Z,-6
2019-01-24T07:34:54.163Z,-6
2019-01-24T07:35:54.058Z,-6
2019-01-24T07:36:53.943Z,-6
2019-01-24T07:37:53.834Z,-6
2019-01-24T07:38:53.716Z,-6
2019-01-24T07:39:53.599Z,-6
2019-01-24T07:40:53.985Z,-6
2019-01-24T07:41:53.866Z,-6
2019-01-24T07:42:53.746Z,-6
2019-01-24T07:43:53.617Z,-6.1
2019-01-24T07:44:53.501Z,-6
2019-01-24T07:45:53.405Z,-6
2019-01-24T07:46:53.317Z,-6
2019-01-24T07:47:53.208Z,-6
2019-01-24T07:48:53.109Z,-6
2019-01-24T07:49:52.985Z,-6.1
2019-01-24T07:50:53.295Z,-6.1
2019-01-24T07:51:53.182Z,-6.2
2019-01-24T07:52:53.065Z,-6.2
2019-01-24T07:53:52.943Z,-6.2
2019-01-24T07:54:52.825Z,-6.1
2019-01-24T07:55:52.716Z,-6.1
2019-01-24T07:56:52.613Z,-6.1
2019-01-24T07:57:52.497Z,-6.2
2019-01-24T07:58:52.387Z,-6.2
2019-01-24T07:59:52.259Z,-6.2
2019-01-24T08:00:52.626Z,-6.2
2019-01-24T08:01:52.515Z,-6.3
2019-01-24T08:02:52.399Z,-6.2
2019-01-24T08:03:52.281Z,-6.1
2019-01-24T08:04:52.185Z,-6.1
2019-01-24T08:05:52.083Z,-6.1
2019-01-24T08:06:51.969Z,-6.1
2019-01-24T08:07:51.858Z,-6.2
2019-01-24T08:08:51.743Z,-6.2
2019-01-24T08:09:51.623Z,-6.1
2019-01-24T08:10:51.939Z,-6.1
2019-01-24T08:11:51.834Z,-6.1
2019-01-24T08:12:51.747Z,-6.1
2019-01-24T08:13:51.635Z,-6
2019-01-24T08:14:51.527Z,-5.9
2019-01-24T08:15:51.427Z,-5.9
2019-01-24T08:16:51.306Z,-5.9
2019-01-24T08:17:51.201Z,-5.9
2019-01-24T08:18:51.117Z,-5.8
2019-01-24T08:19:51.005Z,-5.8
2019-01-24T08:20:51.347Z,-5.7
2019-01-24T08:21:51.223Z,-5.7
2019-01-24T08:22:51.118Z,-5.7
2019-01-24T08:23:51.002Z,-5.7
2019-01-24T08:24:50.881Z,-5.7
2019-01-24T08:25:50.780Z,-5.7
2019-01-24T08:26:50.667Z,-5.6
2019-01-24T08:27:50.538Z,-5.7
2019-01-24T08:28:50.420Z,-5.7
2019-01-24T08:29:50.300Z,-5.7
2019-01-24T08:30:50.614Z,-5.6
2019-01-24T08:31:50.537Z,-5.6
2019-01-24T08:32:50.429Z,-5.7
2019-01-24T08:33:50.316Z,-5.7
2019-01-24T08:34:50.200Z,-5.7
2019-01-24T08:35:50.169Z,-5.7
2019-01-24T08:36:50.051Z,-5.7
2019-01-24T08:37:49.935Z,-5.7
2019-01-24T08:38:49.862Z,-5.7
2019-01-24T08:39:49.765Z,-5.8
2019-01-24T08:40:50.175Z,-5.7
2019-01-24T08:41:50.068Z,-5.7
2019-01-24T08:42:49.958Z,-5.6
2019-01-24T08:43:49.871Z,-5.6
2019-01-24T08:44:49.766Z,-5.6
2019-01-24T08:45:49.704Z,-5.6
2019-01-24T08:46:49.600Z,-5.6
2019-01-24T08:47:49.482Z,-5.6
2019-01-24T08:48:49.400Z,-5.6
2019-01-24T08:49:49.276Z,-5.6
2019-01-24T08:50:49.591Z,-5.5
2019-01-24T08:51:49.491Z,-5.6
2019-01-24T08:52:49.379Z,-5.6
2019-01-24T08:53:49.257Z,-5.6
2019-01-24T08:54:49.143Z,-5.5
2019-01-24T08:55:49.068Z,-5.5
2019-01-24T08:56:48.949Z,-5.5
2019-01-24T08:57:48.822Z,-5.4
2019-01-24T08:58:48.746Z,-5.4
2019-01-24T08:59:48.630Z,-5.5
2019-01-24T09:00:48.974Z,-5.4
2019-01-24T09:01:48.860Z,-5.4
2019-01-24T09:02:48.750Z,-5.4
2019-01-24T09:03:48.652Z,-5.4
2019-01-24T09:04:48.520Z,-5.4
2019-01-24T09:05:48.409Z,-5.3
2019-01-24T09:06:48.343Z,-5.3
2019-01-24T09:07:48.234Z,-5.3
2019-01-24T09:08:48.114Z,-5.3
2019-01-24T09:09:48.002Z,-5.4
2019-01-24T09:10:48.306Z,-5.4
2019-01-24T09:11:48.189Z,-5.3
2019-01-24T09:12:48.078Z,-5.4
2019-01-24T09:13:47.968Z,-5.3
2019-01-24T09:14:47.893Z,-5.3
2019-01-24T09:15:47.802Z,-5.3
2019-01-24T09:16:47.706Z,-5.3
2019-01-24T09:17:47.646Z,-5.3
2019-01-24T09:18:47.558Z,-5.3
2019-01-24T09:19:47.460Z,-5.3
2019-01-24T09:20:47.828Z,-5.2
2019-01-24T09:21:47.715Z,-5.2
2019-01-24T09:22:47.620Z,-5.2
2019-01-24T09:23:47.496Z,-5.1
2019-01-24T09:24:47.366Z,-5
2019-01-24T09:25:47.265Z,-5
2019-01-24T09:26:47.150Z,-4.9
2019-01-24T09:27:47.068Z,-4.8
2019-01-24T09:28:47.010Z,-4.8
2019-01-24T09:29:46.896Z,-4.8
2019-01-24T09:30:47.238Z,-4.7
2019-01-24T09:31:47.135Z,-4.7
2019-01-24T09:32:47.031Z,-4.7
2019-01-24T09:33:46.910Z,-4.6
2019-01-24T09:36:46.316Z,-4.4
2019-01-24T09:37:46.206Z,-4.3
2019-01-24T09:38:46.110Z,-4.2
2019-01-24T09:40:46.168Z,-4.1
2019-01-24T09:41:46.068Z,-4.1
2019-01-24T09:42:45.946Z,-4.1
2019-01-24T09:43:45.800Z,-4
2019-01-24T09:44:45.678Z,-4
2019-01-24T09:45:45.570Z,-4
2019-01-24T09:46:45.470Z,-4
2019-01-24T09:47:45.354Z,-4
2019-01-24T09:48:45.247Z,-4
2019-01-24T09:49:45.133Z,-4.1
2019-01-24T09:50:45.442Z,-4.1
2019-01-24T09:51:45.327Z,-4.2
2019-01-24T09:52:45.211Z,-4.2
2019-01-24T09:53:45.110Z,-4.2
2019-01-24T09:54:45.002Z,-4.2
2019-01-24T09:55:44.902Z,-4.1
2019-01-24T09:56:44.774Z,-4.1
2019-01-24T09:57:44.666Z,-4
2019-01-24T09:58:44.554Z,-4
2019-01-24T09:59:44.436Z,-4
2019-01-24T10:00:45.606Z,-4
2019-01-24T10:01:45.499Z,-4
2019-01-24T10:02:45.397Z,-4
2019-01-24T10:03:45.291Z,-3.9
2019-01-24T10:04:45.198Z,-3.9
2019-01-24T10:05:45.145Z,-3.9
2019-01-24T10:06:45.063Z,-3.9
2019-01-24T10:07:44.950Z,-3.9
2019-01-24T10:08:44.855Z,-4
2019-01-24T10:09:44.742Z,-4
2019-01-24T10:10:45.032Z,-4
2019-01-24T10:11:44.954Z,-4
2019-01-24T10:12:44.834Z,-3.9
2019-01-24T10:13:44.719Z,-3.8
2019-01-24T10:14:44.612Z,-3.7
2019-01-24T10:15:44.500Z,-3.7
2019-01-24T10:16:44.445Z,-3.7
2019-01-24T10:17:44.353Z,-3.7
2019-01-24T10:18:44.242Z,-3.7
2019-01-24T10:19:44.118Z,-3.7
2019-01-24T10:20:44.424Z,-3.6
2019-01-24T10:21:44.343Z,-3.5
2019-01-24T10:22:44.255Z,-3.5
2019-01-24T10:23:44.170Z,-3.4
2019-01-24T10:24:44.066Z,-3.3
2019-01-24T10:25:43.968Z,-3.3
2019-01-24T10:26:43.862Z,-3.3
2019-01-24T10:27:43.781Z,-3.2
2019-01-24T10:28:43.677Z,-3.1
2019-01-24T10:29:43.577Z,-3.1
2019-01-24T10:30:43.974Z,-2.9
2019-01-24T10:31:43.875Z,-2.9
2019-01-24T10:32:43.789Z,-2.8
2019-01-24T10:33:43.701Z,-2.7
2019-01-24T10:34:43.603Z,-2.7
2019-01-24T10:35:43.491Z,-2.6
2019-01-24T10:36:43.848Z,-2.5
2019-01-24T10:37:43.744Z,-2.5
2019-01-24T10:38:43.649Z,-2.5
2019-01-24T10:39:43.545Z,-2.4
2019-01-24T10:40:43.861Z,-2.4
2019-01-24T10:41:43.738Z,-2.4
2019-01-24T10:42:43.623Z,-2.3
2019-01-24T10:43:43.510Z,-2.3
2019-01-24T10:44:43.415Z,-2.3
2019-01-24T10:45:43.296Z,-2.3
2019-01-24T10:46:43.190Z,-2.3
2019-01-24T10:47:43.079Z,-2.3
2019-01-24T10:48:42.972Z,-2.2
2019-01-24T10:49:42.871Z,-2.2
2019-01-24T10:50:43.165Z,-2.2
2019-01-24T10:51:43.047Z,-2.1
2019-01-24T10:52:42.941Z,-2.1
2019-01-24T10:53:42.829Z,-2.1
2019-01-24T10:54:42.701Z,-2.1
2019-01-24T10:55:42.600Z,-2.1
2019-01-24T10:56:42.477Z,-2.1
2019-01-24T10:57:42.353Z,-2
2019-01-24T10:58:42.242Z,-2
2019-01-24T10:59:42.129Z,-2
2019-01-24T11:00:42.465Z,-1.9
2019-01-24T11:01:42.363Z,-2
2019-01-24T11:02:42.258Z,-1.9
2019-01-24T11:03:42.178Z,-1.9
2019-01-24T11:04:42.067Z,-2
2019-01-24T11:05:41.971Z,-2
2019-01-24T11:06:41.887Z,-1.9
2019-01-24T11:07:41.832Z,-1.9
2019-01-24T11:08:41.723Z,-1.9
2019-01-24T11:09:41.609Z,-2
2019-01-24T11:10:41.920Z,-1.9
2019-01-24T11:11:41.799Z,-1.9
2019-01-24T11:12:41.675Z,-1.9
2019-01-24T11:13:41.635Z,-1.9
2019-01-24T11:14:41.513Z,-1.8
2019-01-24T11:15:41.445Z,-1.8
2019-01-24T11:16:41.355Z,-1.8
2019-01-24T11:17:41.225Z,-1.7
2019-01-24T11:18:41.172Z,-1.7
2019-01-24T11:19:41.056Z,-1.7
2019-01-24T11:20:41.393Z,-1.6
2019-01-24T11:21:41.284Z,-1.6
2019-01-24T11:22:41.170Z,-1.6
2019-01-24T11:23:41.065Z,-1.5
2019-01-24T11:24:40.955Z,-1.4
2019-01-24T11:25:40.827Z,-1.3
2019-01-24T11:26:40.737Z,-1.3
2019-01-24T11:27:40.623Z,-1.2
2019-01-24T11:28:40.502Z,-1.2
2019-01-24T11:29:40.385Z,-1.1
2019-01-24T11:30:40.741Z,-1.1
2019-01-24T11:31:40.644Z,-1
2019-01-24T11:32:40.571Z,-1
2019-01-24T11:33:40.455Z,-1
2019-01-24T11:34:40.349Z,-1
2019-01-24T11:35:40.251Z,-1
2019-01-24T11:36:40.131Z,-1
2019-01-24T11:37:40.017Z,-0.9
2019-01-24T11:38:39.913Z,-0.9
2019-01-24T11:39:39.844Z,-0.9
2019-01-24T11:40:40.146Z,-1
2019-01-24T11:41:40.073Z,-1
2019-01-24T11:42:39.945Z,-1
2019-01-24T11:43:39.841Z,-1
2019-01-24T11:44:39.733Z,-0.9
2019-01-24T11:45:39.619Z,-0.9
2019-01-24T11:46:39.493Z,-1
2019-01-24T11:47:39.384Z,-1
2019-01-24T11:48:39.304Z,-0.9
2019-01-24T11:49:39.197Z,-1
2019-01-24T11:50:39.488Z,-1
2019-01-24T11:51:39.423Z,-1
2019-01-24T11:52:39.319Z,-1
2019-01-24T11:53:39.243Z,-1
2019-01-24T11:54:39.119Z,-1.1
2019-01-24T11:55:39.006Z,-1
2019-01-24T11:56:38.897Z,-1
2019-01-24T11:57:38.778Z,-1.1
2019-01-24T11:58:38.663Z,-1.2
2019-01-24T11:59:38.553Z,-1.1
2019-01-24T12:00:38.885Z,-1.1
2019-01-24T12:01:38.767Z,-1.1
2019-01-24T12:02:40.409Z,-1.1
2019-01-24T12:03:40.317Z,-1.1
2019-01-24T12:04:40.231Z,-1.1
2019-01-24T12:05:40.123Z,-1.1
2019-01-24T12:06:40.013Z,-1
2019-01-24T12:07:39.905Z,-0.9
2019-01-24T12:08:39.790Z,-0.9
2019-01-24T12:09:39.690Z,-0.9
2019-01-24T12:10:40.009Z,-0.8
2019-01-24T12:11:39.930Z,-0.8
2019-01-24T12:12:39.835Z,-0.8
2019-01-24T12:13:39.711Z,-0.8
2019-01-24T12:14:39.595Z,-0.8
2019-01-24T12:15:39.528Z,-0.8
2019-01-24T12:16:39.418Z,-0.9
2019-01-24T12:17:39.313Z,-0.9
2019-01-24T12:18:39.203Z,-1
2019-01-24T12:19:39.084Z,-1.1
2019-01-24T12:20:39.449Z,-1.1
2019-01-24T12:21:39.343Z,-1.1
2019-01-24T12:22:39.260Z,-1.1
2019-01-24T12:23:39.131Z,-1.2
2019-01-24T12:24:39.029Z,-1.1
2019-01-24T12:25:38.913Z,-1.1
2019-01-24T12:26:38.819Z,-1.1
2019-01-24T12:27:38.728Z,-1.1
2019-01-24T12:28:38.628Z,-1.1
2019-01-24T12:29:38.526Z,-1.1
2019-01-24T12:30:38.825Z,-1.2
2019-01-24T12:31:38.721Z,-1.2
2019-01-24T12:32:38.614Z,-1.1
2019-01-24T12:33:38.535Z,-1.1
2019-01-24T12:34:38.428Z,-1.1
2019-01-24T12:35:38.330Z,-1.1
2019-01-24T12:36:38.244Z,-1.1
2019-01-24T12:37:38.130Z,-1.1
2019-01-24T12:38:38.013Z,-1.2
2019-01-24T12:39:37.946Z,-1.2
2019-01-24T12:40:38.263Z,-1.1
2019-01-24T12:41:38.172Z,-1.1
2019-01-24T12:42:38.151Z,-1.1
2019-01-24T12:43:38.048Z,-1.1
2019-01-24T12:44:37.945Z,-1.1
2019-01-24T12:45:37.837Z,-1
2019-01-24T12:46:37.750Z,-1
2019-01-24T12:47:37.654Z,-1
2019-01-24T12:48:37.558Z,-1.1
2019-01-24T12:49:37.441Z,-1
2019-01-24T12:50:37.770Z,-1
2019-01-24T12:51:39.200Z,-1
2019-01-24T12:52:39.081Z,-1.1
2019-01-24T12:53:38.949Z,-1.1
2019-01-24T12:54:38.830Z,-1.1
2019-01-24T12:55:38.718Z,-1
2019-01-24T12:56:38.628Z,-1
2019-01-24T12:57:38.508Z,-1
2019-01-24T12:58:38.398Z,-1
2019-01-24T12:59:38.290Z,-1.1
2019-01-24T13:00:38.616Z,-1.1
2019-01-24T13:01:38.548Z,-1
2019-01-24T13:02:38.443Z,-1.1
2019-01-24T13:03:38.352Z,-1
2019-01-24T13:04:38.240Z,-1
2019-01-24T13:05:38.158Z,-0.9
2019-01-24T13:06:38.086Z,-0.9
2019-01-24T13:07:37.976Z,-0.9
2019-01-24T13:08:37.900Z,-0.9
2019-01-24T13:09:37.785Z,-0.9
2019-01-24T13:10:38.108Z,-0.9
2019-01-24T13:11:38.066Z,-0.9
2019-01-24T13:12:37.957Z,-0.9
2019-01-24T13:13:37.866Z,-0.9
2019-01-24T13:14:37.742Z,-1
2019-01-24T13:15:37.704Z,-0.9
2019-01-24T13:16:37.627Z,-1
2019-01-24T13:17:37.568Z,-0.9
2019-01-24T13:18:37.456Z,-0.9
2019-01-24T13:19:37.346Z,-0.9
2019-01-24T13:20:37.648Z,-0.9
2019-01-24T13:21:37.541Z,-0.9
2019-01-24T13:22:37.488Z,-0.9
2019-01-24T13:23:37.394Z,-0.9
2019-01-24T13:24:37.300Z,-0.8
2019-01-24T13:25:37.220Z,-0.8
2019-01-24T13:26:37.121Z,-0.7
2019-01-24T13:27:37.016Z,-0.7
2019-01-24T13:28:36.934Z,-0.6
2019-01-24T13:29:36.812Z,-0.6
2019-01-24T13:30:37.176Z,-0.5
2019-01-24T13:31:37.137Z,-0.5
2019-01-24T13:32:37.028Z,-0.5
2019-01-24T13:33:36.942Z,-0.5
2019-01-24T13:34:36.832Z,-0.5
2019-01-24T13:35:36.720Z,-0.4
2019-01-24T13:36:36.623Z,-0.4
2019-01-24T13:37:36.518Z,-0.4
2019-01-24T13:38:36.431Z,-0.4
2019-01-24T13:39:36.324Z,-0.4
2019-01-24T13:40:36.610Z,-0.4
2019-01-24T13:41:43.183Z,-0.4
2019-01-24T13:42:43.065Z,-0.4
2019-01-24T13:43:43.017Z,-0.4
2019-01-24T13:44:42.912Z,-0.4
2019-01-24T13:45:42.805Z,-0.4
2019-01-24T13:46:42.749Z,-0.3
2019-01-24T13:47:42.648Z,-0.4
2019-01-24T13:48:42.506Z,-0.4
2019-01-24T13:49:42.421Z,-0.4
2019-01-24T13:50:42.751Z,-0.5
2019-01-24T13:51:42.696Z,-0.5
2019-01-24T13:52:42.590Z,-0.5
2019-01-24T13:53:42.484Z,-0.6
2019-01-24T13:54:42.402Z,-0.6
2019-01-24T13:55:42.296Z,-0.6
2019-01-24T13:56:42.194Z,-0.6
2019-01-24T13:57:42.092Z,-0.5